Time;durP1;ratioP1;P1;durP2;ratioP2;P2;SDS_P1;SDS_P2;PMS_P1;PMS_P2;Temp;Humidity;BMP_temperature;BMP_pressure;BME280_temperature;BME280_humidity;BME280_pressure;Samples;Min_cycle;Max_cycle;Signal;HPM_P1;HPM_P2
2021/08/16 00:02:06;;;;;;;8.07;5.90;;;;;;;;;;4973377;28;20033;-68
2021/08/16 00:04:34;;;;;;;7.93;5.70;;;;;;;;;;4973770;28;20075;-67
2021/08/16 00:07:00;;;;;;;7.60;6.13;;;;;;;;;;4973339;28;20152;-68
2021/08/16 00:09:27;;;;;;;8.82;6.15;;;;;;;;;;4973750;28;20037;-69
2021/08/16 00:11:56;;;;;;;10.98;6.15;;;;;;;;;;4973834;28;20090;-68
2021/08/16 00:14:22;;;;;;;11.15;6.18;;;;;;;;;;4973692;28;20015;-67
2021/08/16 00:16:48;;;;;;;10.23;6.50;;;;;;;;;;4974212;28;20030;-69
2021/08/16 00:19:14;;;;;;;8.95;5.70;;;;;;;;;;4974122;28;20106;-68
2021/08/16 00:21:40;;;;;;;8.80;6.13;;;;;;;;;;4973956;28;20050;-67
2021/08/16 00:24:06;;;;;;;6.80;5.85;;;;;;;;;;4973304;28;20086;-68
2021/08/16 00:26:32;;;;;;;8.68;6.03;;;;;;;;;;4973280;28;20038;-67
2021/08/16 00:29:01;;;;;;;7.60;6.28;;;;;;;;;;4974064;28;20476;-69
2021/08/16 00:31:28;;;;;;;8.65;6.00;;;;;;;;;;4973180;28;20038;-69
2021/08/16 00:33:54;;;;;;;8.38;5.95;;;;;;;;;;4973360;28;20030;-68
2021/08/16 00:36:21;;;;;;;8.77;6.00;;;;;;;;;;4973667;28;20061;-68
2021/08/16 00:38:47;;;;;;;13.95;6.03;;;;;;;;;;4973541;28;20027;-68
2021/08/16 00:41:13;;;;;;;16.38;6.35;;;;;;;;;;4977376;28;20031;-68
2021/08/16 00:43:40;;;;;;;9.55;6.15;;;;;;;;;;4972563;28;20477;-68
2021/08/16 00:46:06;;;;;;;7.93;6.07;;;;;;;;;;4968049;28;20180;-69
2021/08/16 00:48:32;;;;;;;8.10;6.05;;;;;;;;;;4973314;28;20043;-69
2021/08/16 00:50:59;;;;;;;9.23;6.45;;;;;;;;;;4973305;28;20023;-68
2021/08/16 00:53:25;;;;;;;10.13;6.15;;;;;;;;;;4969668;28;20031;-68
2021/08/16 00:55:51;;;;;;;7.15;5.53;;;;;;;;;;4972859;28;20018;-69
2021/08/16 00:58:18;;;;;;;8.15;6.05;;;;;;;;;;4973252;28;20069;-69
2021/08/16 01:00:44;;;;;;;8.65;6.20;;;;;;;;;;4968800;28;20048;-66
2021/08/16 01:03:10;;;;;;;7.35;5.35;;;;;;;;;;4972612;28;20030;-69
2021/08/16 01:05:36;;;;;;;10.57;6.00;;;;;;;;;;4972370;28;20109;-67
2021/08/16 01:08:03;;;;;;;10.65;5.63;;;;;;;;;;4973429;28;20601;-68
2021/08/16 01:10:30;;;;;;;8.00;5.68;;;;;;;;;;4971969;28;20476;-69
2021/08/16 01:12:56;;;;;;;6.55;5.45;;;;;;;;;;4972887;28;20538;-69
2021/08/16 01:15:22;;;;;;;8.05;5.63;;;;;;;;;;4973472;28;20035;-68
2021/08/16 01:17:48;;;;;;;9.70;6.10;;;;;;;;;;4972627;28;20038;-68
2021/08/16 01:20:15;;;;;;;9.68;5.63;;;;;;;;;;4973284;28;20063;-68
2021/08/16 01:22:41;;;;;;;9.25;5.53;;;;;;;;;;4972825;28;20023;-69
2021/08/16 01:25:08;;;;;;;7.22;5.28;;;;;;;;;;4972692;28;20163;-69
2021/08/16 01:27:34;;;;;;;10.15;5.40;;;;;;;;;;4972395;28;20023;-67
2021/08/16 01:30:08;;;;;;;8.70;5.22;;;;;;;;;;4972076;28;20117;-68
2021/08/16 01:32:34;;;;;;;7.55;5.65;;;;;;;;;;4972475;28;20031;-68
2021/08/16 01:35:02;;;;;;;8.02;5.80;;;;;;;;;;4973675;28;20393;-69
2021/08/16 01:37:28;;;;;;;7.68;5.07;;;;;;;;;;4972239;28;20173;-67
2021/08/16 01:39:54;;;;;;;6.32;4.97;;;;;;;;;;4972139;28;20029;-69
2021/08/16 01:42:21;;;;;;;9.32;5.65;;;;;;;;;;4972794;28;20050;-68
2021/08/16 01:44:47;;;;;;;8.50;5.80;;;;;;;;;;4972325;28;20031;-68
2021/08/16 01:47:13;;;;;;;7.65;5.40;;;;;;;;;;4972009;28;20057;-68
2021/08/16 01:49:39;;;;;;;9.13;5.57;;;;;;;;;;4971861;28;20480;-68
2021/08/16 01:52:05;;;;;;;7.88;5.00;;;;;;;;;;4970930;28;20498;-67
2021/08/16 01:54:35;;;;;;;7.32;5.25;;;;;;;;;;4975273;28;20385;-69
2021/08/16 01:57:02;;;;;;;7.45;4.93;;;;;;;;;;4971999;28;20114;-68
2021/08/16 01:59:28;;;;;;;9.60;5.32;;;;;;;;;;4971562;28;20518;-68
2021/08/16 02:01:54;;;;;;;7.65;5.20;;;;;;;;;;4972181;28;20404;-69
2021/08/16 02:04:20;;;;;;;6.68;5.32;;;;;;;;;;4971292;28;20393;-69
2021/08/16 02:06:46;;;;;;;7.30;5.20;;;;;;;;;;4969986;28;20023;-69
2021/08/16 02:09:12;;;;;;;9.38;5.18;;;;;;;;;;4970755;28;20054;-68
2021/08/16 02:11:38;;;;;;;10.60;5.32;;;;;;;;;;4971425;28;20031;-68
2021/08/16 02:14:04;;;;;;;6.68;5.00;;;;;;;;;;4972115;28;20094;-69
2021/08/16 02:16:32;;;;;;;7.05;5.20;;;;;;;;;;4971973;28;20551;-68
2021/08/16 02:18:58;;;;;;;7.75;5.28;;;;;;;;;;4972178;28;20030;-69
2021/08/16 02:21:24;;;;;;;8.15;5.30;;;;;;;;;;4973197;28;20015;-69
2021/08/16 02:23:51;;;;;;;7.28;5.05;;;;;;;;;;4971783;28;20106;-69
2021/08/16 02:26:17;;;;;;;8.00;5.40;;;;;;;;;;4971763;28;20481;-69
2021/08/16 02:28:43;;;;;;;6.90;5.03;;;;;;;;;;4971732;28;20545;-68
2021/08/16 02:31:09;;;;;;;8.55;5.43;;;;;;;;;;4971978;28;20074;-68
2021/08/16 02:33:35;;;;;;;9.57;5.90;;;;;;;;;;4970695;28;20061;-68
2021/08/16 02:36:01;;;;;;;7.90;5.38;;;;;;;;;;4971935;28;20034;-69
2021/08/16 02:38:27;;;;;;;9.50;5.43;;;;;;;;;;4971734;28;20036;-69
2021/08/16 02:40:53;;;;;;;9.80;5.28;;;;;;;;;;4972180;28;20090;-69
2021/08/16 02:43:19;;;;;;;9.52;5.15;;;;;;;;;;4973630;28;20034;-69
2021/08/16 02:45:45;;;;;;;8.43;5.90;;;;;;;;;;4970510;28;20476;-68
2021/08/16 02:48:11;;;;;;;8.43;5.55;;;;;;;;;;4970787;28;20058;-69
2021/08/16 02:50:37;;;;;;;10.00;5.57;;;;;;;;;;4971496;28;20082;-68
2021/08/16 02:53:03;;;;;;;7.53;6.03;;;;;;;;;;4971000;28;20043;-68
2021/08/16 02:55:30;;;;;;;7.53;5.78;;;;;;;;;;4971241;28;20058;-68
2021/08/16 02:57:56;;;;;;;10.80;5.57;;;;;;;;;;4954783;28;20035;-68
2021/08/16 03:00:22;;;;;;;8.43;6.35;;;;;;;;;;4972431;28;20058;-69
2021/08/16 03:02:48;;;;;;;9.15;6.05;;;;;;;;;;4971118;28;20034;-68
2021/08/16 03:05:14;;;;;;;10.10;5.80;;;;;;;;;;4971909;28;20564;-69
2021/08/16 03:07:40;;;;;;;9.15;6.45;;;;;;;;;;4971409;28;20388;-68
2021/08/16 03:10:07;;;;;;;8.05;5.47;;;;;;;;;;4975364;28;20026;-69
2021/08/16 03:12:34;;;;;;;7.45;5.55;;;;;;;;;;4975383;28;20397;-68
2021/08/16 03:15:00;;;;;;;9.90;6.25;;;;;;;;;;4973995;28;20023;-69
2021/08/16 03:17:26;;;;;;;17.30;5.95;;;;;;;;;;4975306;28;20511;-69
2021/08/16 03:19:52;;;;;;;7.90;5.75;;;;;;;;;;4974630;28;20436;-69
2021/08/16 03:22:18;;;;;;;7.65;5.60;;;;;;;;;;4974180;28;20466;-69
2021/08/16 03:24:44;;;;;;;9.10;6.18;;;;;;;;;;4974480;28;20029;-69
2021/08/16 03:27:10;;;;;;;9.50;6.10;;;;;;;;;;4975355;28;20114;-69
2021/08/16 03:29:36;;;;;;;8.98;6.13;;;;;;;;;;4975278;28;20031;-68
2021/08/16 03:32:02;;;;;;;14.15;7.07;;;;;;;;;;4974308;28;20043;-68
2021/08/16 03:34:29;;;;;;;11.98;6.78;;;;;;;;;;4974508;28;20031;-68
2021/08/16 03:36:55;;;;;;;17.40;9.65;;;;;;;;;;4973595;28;20035;-68
2021/08/16 03:39:21;;;;;;;9.30;6.90;;;;;;;;;;4974920;28;20018;-69
2021/08/16 03:41:47;;;;;;;11.80;6.88;;;;;;;;;;4974533;28;20118;-68
2021/08/16 03:44:13;;;;;;;10.52;6.68;;;;;;;;;;4973779;28;20031;-68
2021/08/16 03:46:39;;;;;;;9.85;6.10;;;;;;;;;;4974374;28;20492;-69
2021/08/16 03:49:05;;;;;;;8.32;5.75;;;;;;;;;;4974661;28;20110;-68
2021/08/16 03:51:32;;;;;;;10.10;6.50;;;;;;;;;;4972892;28;20038;-67
2021/08/16 03:53:58;;;;;;;11.32;6.28;;;;;;;;;;4972520;28;20023;-67
2021/08/16 03:56:24;;;;;;;9.00;6.10;;;;;;;;;;4974755;28;20041;-68
2021/08/16 03:58:50;;;;;;;10.57;5.60;;;;;;;;;;4971521;28;20027;-68
2021/08/16 04:01:16;;;;;;;12.32;6.28;;;;;;;;;;4974295;28;20089;-67
2021/08/16 04:03:43;;;;;;;9.95;6.05;;;;;;;;;;4974261;28;20030;-67
2021/08/16 04:06:09;;;;;;;17.10;11.23;;;;;;;;;;4974250;28;20031;-68
2021/08/16 04:08:39;;;;;;;21.65;17.17;;;;;;;;;;4974002;28;20461;-68
2021/08/16 04:11:06;;;;;;;26.95;15.77;;;;;;;;;;4973581;28;20073;-68
2021/08/16 04:13:32;;;;;;;22.05;15.25;;;;;;;;;;4970729;28;20035;-67
2021/08/16 04:15:58;;;;;;;11.65;8.50;;;;;;;;;;4973932;28;20503;-67
2021/08/16 04:18:24;;;;;;;10.43;7.13;;;;;;;;;;4973830;28;20362;-68
2021/08/16 04:20:52;;;;;;;11.15;6.40;;;;;;;;;;4966971;28;20031;-66
2021/08/16 04:23:21;;;;;;;10.77;6.55;;;;;;;;;;4977989;28;20156;-66
2021/08/16 04:25:47;;;;;;;10.70;5.97;;;;;;;;;;4978706;28;20023;-76
2021/08/16 04:28:13;;;;;;;12.95;7.40;;;;;;;;;;4973536;28;20062;-68
2021/08/16 04:30:39;;;;;;;15.05;8.85;;;;;;;;;;4983349;28;20473;-67
2021/08/16 04:33:05;;;;;;;13.30;9.82;;;;;;;;;;4975544;28;20086;-68
2021/08/16 04:35:32;;;;;;;15.20;11.25;;;;;;;;;;4974844;28;20075;-69
2021/08/16 04:37:58;;;;;;;13.30;9.18;;;;;;;;;;4973145;28;20031;-68
2021/08/16 04:40:24;;;;;;;14.85;8.77;;;;;;;;;;4976724;28;20014;-68
2021/08/16 04:42:50;;;;;;;20.35;9.75;;;;;;;;;;4976384;28;20062;-64
2021/08/16 04:45:16;;;;;;;15.55;8.07;;;;;;;;;;4975965;28;20041;-63
2021/08/16 04:47:44;;;;;;;15.80;7.43;;;;;;;;;;4978261;28;20050;-65
2021/08/16 04:50:10;;;;;;;13.35;7.28;;;;;;;;;;4980481;28;20026;-65
2021/08/16 04:52:36;;;;;;;19.80;8.27;;;;;;;;;;4973736;28;20039;-66
2021/08/16 04:55:02;;;;;;;18.40;7.43;;;;;;;;;;4974084;28;20031;-65
2021/08/16 04:57:31;;;;;;;14.43;6.95;;;;;;;;;;4980848;28;20031;-65
2021/08/16 04:59:59;;;;;;;13.50;7.43;;;;;;;;;;4978598;28;20023;-65
2021/08/16 05:02:26;;;;;;;14.55;7.82;;;;;;;;;;4974024;28;20027;-64
2021/08/16 05:04:58;;;;;;;14.25;7.38;;;;;;;;;;4975064;28;20027;-66
2021/08/16 05:07:24;;;;;;;18.92;7.63;;;;;;;;;;4971875;28;20027;-66
2021/08/16 05:09:51;;;;;;;16.13;7.60;;;;;;;;;;4973153;28;20488;-65
2021/08/16 05:12:17;;;;;;;13.68;7.35;;;;;;;;;;4982002;28;20561;-66
2021/08/16 05:14:43;;;;;;;19.05;7.40;;;;;;;;;;4979441;28;20397;-65
2021/08/16 05:17:09;;;;;;;18.88;8.80;;;;;;;;;;4977568;28;20026;-68
2021/08/16 05:19:37;;;;;;;15.98;7.15;;;;;;;;;;4971283;28;20061;-66
2021/08/16 05:22:12;;;;;;;18.02;7.72;;;;;;;;;;4974571;28;20491;-68
2021/08/16 05:24:38;;;;;;;14.73;7.25;;;;;;;;;;4969410;28;20094;-63
2021/08/16 05:27:04;;;;;;;17.30;8.25;;;;;;;;;;4978086;28;20440;-67
2021/08/16 05:29:31;;;;;;;16.55;7.43;;;;;;;;;;4981776;28;20039;-66
2021/08/16 05:31:57;;;;;;;16.40;7.22;;;;;;;;;;4980141;28;20042;-64
2021/08/16 05:34:23;;;;;;;17.58;7.47;;;;;;;;;;4974127;28;20031;-64
2021/08/16 05:36:49;;;;;;;11.93;7.70;;;;;;;;;;4974955;28;20035;-65
2021/08/16 05:39:16;;;;;;;14.73;6.90;;;;;;;;;;4974143;28;20030;-63
2021/08/16 05:41:42;;;;;;;11.13;6.72;;;;;;;;;;4976910;28;20030;-65
2021/08/16 05:44:10;;;;;;;13.07;6.85;;;;;;;;;;4974484;28;20022;-67
2021/08/16 05:46:36;;;;;;;11.85;6.63;;;;;;;;;;4963719;28;20121;-62
2021/08/16 05:49:05;;;;;;;10.60;7.00;;;;;;;;;;4978183;28;20030;-70
2021/08/16 05:51:31;;;;;;;14.35;6.97;;;;;;;;;;4976377;28;20499;-66
2021/08/16 05:53:57;;;;;;;11.05;6.93;;;;;;;;;;4978893;28;20105;-71
2021/08/16 05:56:23;;;;;;;13.98;6.07;;;;;;;;;;4971998;28;20078;-69
2021/08/16 05:58:49;;;;;;;8.32;6.65;;;;;;;;;;4976262;28;20500;-71
2021/08/16 06:01:16;;;;;;;15.43;7.35;;;;;;;;;;4978292;28;20061;-71
2021/08/16 06:03:43;;;;;;;10.75;6.40;;;;;;;;;;4945418;28;20523;-71
2021/08/16 06:06:09;;;;;;;13.35;7.13;;;;;;;;;;4973199;28;20544;-72
2021/08/16 06:08:35;;;;;;;16.80;7.32;;;;;;;;;;4977482;28;20050;-70
2021/08/16 06:11:03;;;;;;;19.23;7.75;;;;;;;;;;4974901;28;20116;-69
2021/08/16 06:13:29;;;;;;;16.40;7.50;;;;;;;;;;4976345;28;20037;-70
2021/08/16 06:15:55;;;;;;;13.07;7.05;;;;;;;;;;4971946;28;20082;-67
2021/08/16 06:18:21;;;;;;;16.25;8.38;;;;;;;;;;4958618;28;20031;-68
2021/08/16 06:20:47;;;;;;;17.83;7.88;;;;;;;;;;4973195;28;20500;-76
2021/08/16 06:23:13;;;;;;;14.82;7.30;;;;;;;;;;4971287;28;20031;-70
2021/08/16 06:25:40;;;;;;;22.23;7.97;;;;;;;;;;4987881;28;20023;-69
2021/08/16 06:28:06;;;;;;;16.83;7.88;;;;;;;;;;4972919;28;20027;-70
2021/08/16 06:30:32;;;;;;;11.80;7.50;;;;;;;;;;4972754;28;20150;-69
2021/08/16 06:32:58;;;;;;;13.20;7.43;;;;;;;;;;4974253;28;20030;-69
2021/08/16 06:35:24;;;;;;;19.30;8.02;;;;;;;;;;4975245;28;20468;-71
2021/08/16 06:37:51;;;;;;;13.40;7.85;;;;;;;;;;4972212;28;20473;-71
2021/08/16 06:40:18;;;;;;;13.85;8.23;;;;;;;;;;4973143;28;20038;-71
2021/08/16 06:42:45;;;;;;;17.58;7.68;;;;;;;;;;4971790;28;20121;-70
2021/08/16 06:45:11;;;;;;;13.25;7.50;;;;;;;;;;4962954;28;20085;-75
2021/08/16 06:47:38;;;;;;;13.98;7.57;;;;;;;;;;4976628;28;20817;-74
2021/08/16 06:50:05;;;;;;;22.23;7.95;;;;;;;;;;4977638;28;20078;-73
2021/08/16 06:52:32;;;;;;;18.40;8.07;;;;;;;;;;4973266;28;20058;-71
2021/08/16 06:54:58;;;;;;;14.10;7.28;;;;;;;;;;4977509;28;20050;-69
2021/08/16 06:57:27;;;;;;;19.33;8.90;;;;;;;;;;4976498;28;20030;-70
2021/08/16 06:59:53;;;;;;;13.85;7.63;;;;;;;;;;4980491;28;20381;-71
2021/08/16 07:02:22;;;;;;;16.33;7.50;;;;;;;;;;4984132;28;20093;-70
2021/08/16 07:04:48;;;;;;;13.02;6.70;;;;;;;;;;4975430;28;20102;-73
2021/08/16 07:07:14;;;;;;;15.38;7.28;;;;;;;;;;4976497;28;20034;-72
2021/08/16 07:09:40;;;;;;;15.07;7.63;;;;;;;;;;4977145;28;20027;-73
2021/08/16 07:12:06;;;;;;;11.98;6.93;;;;;;;;;;4975782;28;20121;-70
2021/08/16 07:14:32;;;;;;;11.38;6.75;;;;;;;;;;4974674;28;20103;-70
2021/08/16 07:16:58;;;;;;;13.45;7.20;;;;;;;;;;4969198;28;20046;-69
2021/08/16 07:19:24;;;;;;;17.17;7.88;;;;;;;;;;4977855;28;20035;-70
2021/08/16 07:21:54;;;;;;;12.55;7.47;;;;;;;;;;4973291;28;20581;-69
2021/08/16 07:24:39;;;;;;;12.40;7.00;;;;;;;;;;4977903;28;20038;-68
2021/08/16 07:27:22;;;;;;;13.05;7.38;;;;;;;;;;4975577;28;20038;-70
2021/08/16 07:29:48;;;;;;;12.45;6.65;;;;;;;;;;4975682;28;20109;-68
2021/08/16 07:32:28;;;;;;;13.32;6.53;;;;;;;;;;4962738;28;20034;-68
2021/08/16 07:34:59;;;;;;;13.57;7.80;;;;;;;;;;4979418;28;20030;-68
2021/08/16 07:37:30;;;;;;;14.77;7.25;;;;;;;;;;4978548;28;20050;-67
2021/08/16 07:39:56;;;;;;;21.52;7.22;;;;;;;;;;4971472;28;20047;-68
2021/08/16 07:42:25;;;;;;;11.38;6.70;;;;;;;;;;4959078;28;20031;-69
2021/08/16 07:44:52;;;;;;;13.07;6.30;;;;;;;;;;4976194;28;20054;-68
2021/08/16 07:47:19;;;;;;;10.75;6.65;;;;;;;;;;4974447;28;20066;-67
2021/08/16 07:49:56;;;;;;;11.38;6.93;;;;;;;;;;4977401;28;20676;-69
2021/08/16 07:52:22;;;;;;;13.68;7.45;;;;;;;;;;4976908;28;20395;-67
2021/08/16 07:54:48;;;;;;;11.52;7.47;;;;;;;;;;4980258;28;20023;-70
2021/08/16 07:57:14;;;;;;;11.75;7.47;;;;;;;;;;4973881;28;20038;-70
2021/08/16 07:59:42;;;;;;;14.15;7.15;;;;;;;;;;4975833;28;20076;-66
2021/08/16 08:02:08;;;;;;;14.98;7.47;;;;;;;;;;4975363;28;20584;-72
2021/08/16 08:04:37;;;;;;;24.48;7.50;;;;;;;;;;4972769;28;20026;-74
2021/08/16 08:07:06;;;;;;;14.85;7.35;;;;;;;;;;4969352;28;20126;-74
2021/08/16 08:09:32;;;;;;;15.82;6.95;;;;;;;;;;4976665;28;20495;-69
2021/08/16 08:12:02;;;;;;;16.17;6.57;;;;;;;;;;4956849;28;20054;-73
2021/08/16 08:14:28;;;;;;;28.10;7.35;;;;;;;;;;4974992;28;20031;-71
2021/08/16 08:16:54;;;;;;;15.60;7.13;;;;;;;;;;4976114;28;20572;-71
2021/08/16 08:19:20;;;;;;;11.80;6.57;;;;;;;;;;4956443;28;20045;-69
2021/08/16 08:21:49;;;;;;;21.58;7.20;;;;;;;;;;4960659;28;20026;-69
2021/08/16 08:24:15;;;;;;;18.27;7.28;;;;;;;;;;4954826;28;20076;-75
2021/08/16 08:26:44;;;;;;;11.10;7.18;;;;;;;;;;4973643;28;20082;-72
2021/08/16 08:29:10;;;;;;;16.23;6.97;;;;;;;;;;4972237;28;20035;-69
2021/08/16 08:31:41;;;;;;;21.30;7.63;;;;;;;;;;4974115;28;20038;-71
2021/08/16 08:34:07;;;;;;;20.88;7.95;;;;;;;;;;4972983;28;20395;-67
2021/08/16 08:36:33;;;;;;;19.33;7.05;;;;;;;;;;4963065;28;20110;-77
2021/08/16 08:38:59;;;;;;;25.60;7.15;;;;;;;;;;4977373;28;20030;-68
2021/08/16 08:41:29;;;;;;;19.70;7.30;;;;;;;;;;4979865;28;20039;-78
2021/08/16 08:43:56;;;;;;;17.58;6.70;;;;;;;;;;4974766;28;20019;-77
2021/08/16 08:46:22;;;;;;;22.80;7.20;;;;;;;;;;4975590;28;20041;-68
2021/08/16 08:48:48;;;;;;;13.10;7.22;;;;;;;;;;4977524;28;20079;-67
2021/08/16 08:51:14;;;;;;;15.57;7.10;;;;;;;;;;4978947;28;20038;-69
2021/08/16 08:53:40;;;;;;;20.65;7.07;;;;;;;;;;4969557;28;20031;-68
2021/08/16 08:56:07;;;;;;;14.38;6.57;;;;;;;;;;4980207;28;20019;-66
2021/08/16 08:58:33;;;;;;;14.57;7.10;;;;;;;;;;4976791;28;20028;-67
2021/08/16 09:00:59;;;;;;;32.20;7.82;;;;;;;;;;4976647;28;20035;-68
2021/08/16 09:03:25;;;;;;;18.38;7.40;;;;;;;;;;4957902;28;20033;-68
2021/08/16 09:05:55;;;;;;;17.77;6.82;;;;;;;;;;4976136;28;20055;-70
2021/08/16 09:08:24;;;;;;;17.15;6.68;;;;;;;;;;4976783;28;20030;-72
2021/08/16 09:10:51;;;;;;;13.23;6.30;;;;;;;;;;4972070;28;20118;-80
2021/08/16 09:13:24;;;;;;;13.45;7.30;;;;;;;;;;4973155;28;20037;-72
2021/08/16 09:15:50;;;;;;;12.80;6.68;;;;;;;;;;4976506;28;20156;-69
2021/08/16 09:18:28;;;;;;;9.07;6.30;;;;;;;;;;4970684;28;20023;-68
2021/08/16 09:20:54;;;;;;;14.68;6.88;;;;;;;;;;4976499;28;20022;-70
2021/08/16 09:23:23;;;;;;;17.25;6.80;;;;;;;;;;4968920;28;20026;-70
2021/08/16 09:26:10;;;;;;;14.25;7.00;;;;;;;;;;4970451;28;20125;-70
2021/08/16 09:28:44;;;;;;;14.48;6.80;;;;;;;;;;4974527;28;20033;-68
2021/08/16 09:31:14;;;;;;;14.18;6.70;;;;;;;;;;4958669;28;20034;-67
2021/08/16 09:33:51;;;;;;;19.58;7.45;;;;;;;;;;4973232;28;20027;-71
2021/08/16 09:36:25;;;;;;;15.18;7.07;;;;;;;;;;4973406;28;20018;-70
2021/08/16 09:38:51;;;;;;;13.20;6.75;;;;;;;;;;4972923;28;20518;-71
2021/08/16 09:41:20;;;;;;;14.90;7.30;;;;;;;;;;4972429;28;20507;-69
2021/08/16 09:43:46;;;;;;;13.40;7.20;;;;;;;;;;4972768;28;20429;-64
2021/08/16 09:46:16;;;;;;;15.20;6.53;;;;;;;;;;4973070;28;20031;-72
2021/08/16 09:48:43;;;;;;;18.77;7.47;;;;;;;;;;4969606;28;20110;-66
2021/08/16 09:51:11;;;;;;;16.13;7.28;;;;;;;;;;4974274;28;20445;-65
2021/08/16 09:53:37;;;;;;;16.40;8.00;;;;;;;;;;4969382;28;20179;-76
2021/08/16 09:56:04;;;;;;;15.38;7.85;;;;;;;;;;4971161;28;20033;-76
2021/08/16 09:58:32;;;;;;;19.30;8.00;;;;;;;;;;4967525;28;20115;-67
2021/08/16 10:01:01;;;;;;;11.50;7.80;;;;;;;;;;4974558;28;20079;-67
2021/08/16 10:03:27;;;;;;;13.35;7.38;;;;;;;;;;4974678;28;20396;-85
2021/08/16 10:05:59;;;;;;;17.75;8.35;;;;;;;;;;4974324;28;20087;-68
2021/08/16 10:08:26;;;;;;;11.98;8.23;;;;;;;;;;4971036;28;20027;-68
2021/08/16 10:10:53;;;;;;;16.98;7.95;;;;;;;;;;4968440;28;20528;-67
2021/08/16 10:13:23;;;;;;;16.58;7.93;;;;;;;;;;4974119;28;20117;-68
2021/08/16 10:16:00;;;;;;;13.52;8.07;;;;;;;;;;4973601;28;20475;-71
2021/08/16 10:18:31;;;;;;;17.25;8.13;;;;;;;;;;4977957;28;20038;-72
2021/08/16 10:20:57;;;;;;;20.85;8.20;;;;;;;;;;4978840;28;20034;-67
2021/08/16 10:23:34;;;;;;;14.73;7.90;;;;;;;;;;4969663;28;20094;-69
2021/08/16 10:26:00;;;;;;;14.02;7.53;;;;;;;;;;4973937;28;20039;-71
2021/08/16 10:28:26;;;;;;;18.52;8.07;;;;;;;;;;4977668;28;20097;-69
2021/08/16 10:30:53;;;;;;;14.77;7.60;;;;;;;;;;4959507;28;20392;-69
2021/08/16 10:33:19;;;;;;;11.00;7.60;;;;;;;;;;4976146;28;20019;-66
2021/08/16 10:35:45;;;;;;;17.92;8.00;;;;;;;;;;4973383;28;20106;-66
2021/08/16 10:38:13;;;;;;;15.18;7.68;;;;;;;;;;4969619;28;20082;-67
2021/08/16 10:40:44;;;;;;;17.55;7.93;;;;;;;;;;4971655;28;20026;-66
2021/08/16 10:43:11;;;;;;;14.98;8.10;;;;;;;;;;4973688;28;20102;-67
2021/08/16 10:45:44;;;;;;;14.35;7.90;;;;;;;;;;4967534;28;20037;-68
2021/08/16 10:48:11;;;;;;;19.08;7.53;;;;;;;;;;4976226;28;20085;-67
2021/08/16 10:50:37;;;;;;;11.23;7.32;;;;;;;;;;4972570;28;20098;-67
2021/08/16 10:53:06;;;;;;;12.25;7.18;;;;;;;;;;4973424;28;20548;-68
2021/08/16 10:55:34;;;;;;;16.52;7.78;;;;;;;;;;4978198;28;20058;-69
2021/08/16 10:58:00;;;;;;;13.65;7.50;;;;;;;;;;4958063;28;20091;-70
2021/08/16 11:00:32;;;;;;;17.77;7.90;;;;;;;;;;4970339;28;20023;-70
2021/08/16 11:02:58;;;;;;;14.43;7.40;;;;;;;;;;4977042;28;20425;-71
2021/08/16 11:05:30;;;;;;;12.15;7.57;;;;;;;;;;4973063;28;20126;-71
2021/08/16 11:08:01;;;;;;;12.40;7.00;;;;;;;;;;4977092;28;20469;-71
2021/08/16 11:10:27;;;;;;;12.93;7.00;;;;;;;;;;4968102;28;20053;-67
2021/08/16 11:12:53;;;;;;;11.00;6.38;;;;;;;;;;4983723;28;20027;-69
2021/08/16 11:15:20;;;;;;;13.70;6.80;;;;;;;;;;4977750;28;20034;-69
2021/08/16 11:17:46;;;;;;;13.73;6.65;;;;;;;;;;4973191;28;20031;-68
2021/08/16 11:20:16;;;;;;;18.92;7.60;;;;;;;;;;4969983;28;20075;-65
2021/08/16 11:22:51;;;;;;;13.80;6.25;;;;;;;;;;4978834;28;20027;-64
2021/08/16 11:25:17;;;;;;;18.23;7.13;;;;;;;;;;4975221;28;20043;-66
2021/08/16 11:27:43;;;;;;;13.18;6.50;;;;;;;;;;4978722;28;20031;-64
2021/08/16 11:30:11;;;;;;;13.60;7.00;;;;;;;;;;4974685;28;20101;-68
2021/08/16 11:32:39;;;;;;;13.98;6.88;;;;;;;;;;4974040;28;20181;-68
2021/08/16 11:35:06;;;;;;;12.77;6.28;;;;;;;;;;4975549;28;20110;-68
2021/08/16 11:37:33;;;;;;;15.75;6.47;;;;;;;;;;4974449;28;20031;-68
2021/08/16 11:40:00;;;;;;;11.68;5.95;;;;;;;;;;4974386;28;20093;-69
2021/08/16 11:42:27;;;;;;;12.88;6.70;;;;;;;;;;4977269;28;20457;-69
2021/08/16 11:44:59;;;;;;;13.50;7.05;;;;;;;;;;4973802;28;20035;-68
2021/08/16 11:47:31;;;;;;;11.90;6.53;;;;;;;;;;4978298;28;20319;-63
2021/08/16 11:49:59;;;;;;;12.68;6.82;;;;;;;;;;4974268;28;20043;-69
2021/08/16 11:52:25;;;;;;;10.57;6.43;;;;;;;;;;4972861;28;20117;-68
2021/08/16 11:54:51;;;;;;;14.27;6.93;;;;;;;;;;4974007;28;20026;-67
2021/08/16 11:57:27;;;;;;;14.05;9.30;;;;;;;;;;4974622;28;20391;-69
2021/08/16 11:59:59;;;;;;;15.75;8.20;;;;;;;;;;4961598;28;20023;-69
2021/08/16 12:02:27;;;;;;;12.82;7.13;;;;;;;;;;4973627;28;20042;-68
2021/08/16 12:04:54;;;;;;;15.07;6.35;;;;;;;;;;4970081;28;20033;-69
2021/08/16 12:07:21;;;;;;;9.82;6.18;;;;;;;;;;4973066;28;20038;-69
2021/08/16 12:09:47;;;;;;;12.18;5.45;;;;;;;;;;4973709;28;20512;-68
2021/08/16 12:12:13;;;;;;;9.20;5.00;;;;;;;;;;4973742;28;20409;-69
2021/08/16 12:14:40;;;;;;;10.15;5.93;;;;;;;;;;4972100;28;20023;-67
2021/08/16 12:17:06;;;;;;;8.27;5.43;;;;;;;;;;4973535;28;20065;-67
2021/08/16 12:19:33;;;;;;;12.50;5.25;;;;;;;;;;4953646;28;20062;-69
2021/08/16 12:22:09;;;;;;;9.90;5.30;;;;;;;;;;4973126;28;20027;-67
2021/08/16 12:24:36;;;;;;;11.05;5.55;;;;;;;;;;4970672;28;20113;-66
2021/08/16 12:27:04;;;;;;;11.15;5.72;;;;;;;;;;4972621;28;20165;-69
2021/08/16 12:29:38;;;;;;;11.23;5.57;;;;;;;;;;4972891;28;20034;-68
2021/08/16 12:32:13;;;;;;;15.38;5.70;;;;;;;;;;4973159;28;20039;-69
2021/08/16 12:34:39;;;;;;;10.18;5.60;;;;;;;;;;4974030;28;20057;-68
2021/08/16 12:37:06;;;;;;;9.35;5.25;;;;;;;;;;4969952;28;20396;-69
2021/08/16 12:39:33;;;;;;;20.27;5.88;;;;;;;;;;4972976;28;20070;-70
2021/08/16 12:42:06;;;;;;;13.35;5.63;;;;;;;;;;4966047;28;20453;-66
2021/08/16 12:44:32;;;;;;;13.20;5.85;;;;;;;;;;4972745;28;20022;-66
2021/08/16 12:47:04;;;;;;;10.20;5.05;;;;;;;;;;4972648;28;20054;-67
2021/08/16 12:49:30;;;;;;;10.90;5.25;;;;;;;;;;4972662;28;20026;-70
2021/08/16 12:51:57;;;;;;;10.00;5.60;;;;;;;;;;4972953;28;20026;-70
2021/08/16 12:54:23;;;;;;;16.02;5.70;;;;;;;;;;4972383;28;20023;-69
2021/08/16 12:56:52;;;;;;;11.32;5.13;;;;;;;;;;4973319;28;20116;-69
2021/08/16 12:59:19;;;;;;;10.85;4.70;;;;;;;;;;4972891;28;20018;-67
2021/08/16 13:01:45;;;;;;;14.27;5.13;;;;;;;;;;4972541;28;20033;-68
2021/08/16 13:04:11;;;;;;;10.23;5.38;;;;;;;;;;4971789;28;20473;-64
2021/08/16 13:06:39;;;;;;;9.75;5.20;;;;;;;;;;4972492;28;20030;-66
2021/08/16 13:09:05;;;;;;;11.63;5.97;;;;;;;;;;4953879;28;20673;-69
2021/08/16 13:11:33;;;;;;;9.50;5.05;;;;;;;;;;4972820;28;20030;-68
2021/08/16 13:13:59;;;;;;;13.10;5.65;;;;;;;;;;4980368;28;20022;-80
2021/08/16 13:16:25;;;;;;;12.00;5.72;;;;;;;;;;4969316;28;20029;-70
2021/08/16 13:18:52;;;;;;;12.43;5.40;;;;;;;;;;4973701;28;20117;-71
2021/08/16 13:21:18;;;;;;;11.55;5.70;;;;;;;;;;4975613;28;20069;-68
2021/08/16 13:23:44;;;;;;;13.25;6.20;;;;;;;;;;4977968;28;20022;-72
2021/08/16 13:26:21;;;;;;;19.17;6.25;;;;;;;;;;4953763;28;20079;-69
2021/08/16 13:28:47;;;;;;;10.43;5.40;;;;;;;;;;4972491;28;20054;-66
2021/08/16 13:31:13;;;;;;;13.80;5.47;;;;;;;;;;4974203;28;20031;-71
2021/08/16 13:33:42;;;;;;;12.13;5.70;;;;;;;;;;4973048;28;20042;-71
2021/08/16 13:36:08;;;;;;;13.13;5.88;;;;;;;;;;4975828;28;20028;-71
2021/08/16 13:38:46;;;;;;;;;;;;;;;;;;;;;
2021/08/16 13:41:15;;;;;;;10.90;5.47;;;;;;;;;;4971202;28;20374;-70
2021/08/16 13:43:44;;;;;;;21.38;5.60;;;;;;;;;;4964044;28;20038;-70
2021/08/16 13:46:13;;;;;;;9.90;5.68;;;;;;;;;;4964958;28;20046;-74
2021/08/16 13:48:39;;;;;;;13.18;5.63;;;;;;;;;;4971877;28;20054;-72
2021/08/16 13:51:09;;;;;;;15.10;6.25;;;;;;;;;;4971672;28;20042;-70
2021/08/16 13:53:35;;;;;;;13.00;5.80;;;;;;;;;;4969931;28;20035;-69
2021/08/16 13:56:01;;;;;;;16.58;6.20;;;;;;;;;;4973945;28;20023;-68
2021/08/16 13:58:27;;;;;;;10.18;5.85;;;;;;;;;;4971889;28;20038;-81
2021/08/16 14:00:53;;;;;;;20.60;6.28;;;;;;;;;;4973822;28;20035;-72
2021/08/16 14:03:28;;;;;;;12.00;5.65;;;;;;;;;;4971823;28;20034;-79
2021/08/16 14:05:59;;;;;;;11.35;5.32;;;;;;;;;;4972907;28;20050;-73
2021/08/16 14:08:25;;;;;;;11.30;5.32;;;;;;;;;;4952541;28;20488;-68
2021/08/16 14:10:52;;;;;;;13.85;5.30;;;;;;;;;;4956389;28;20042;-68
2021/08/16 14:13:19;;;;;;;14.30;5.53;;;;;;;;;;4973686;28;20074;-66
2021/08/16 14:15:51;;;;;;;12.52;5.57;;;;;;;;;;4978024;28;20077;-73
2021/08/16 14:18:19;;;;;;;12.43;5.18;;;;;;;;;;4972331;28;20031;-72
2021/08/16 14:20:46;;;;;;;12.27;5.47;;;;;;;;;;4970647;28;20026;-70
2021/08/16 14:23:15;;;;;;;13.07;5.90;;;;;;;;;;4976488;28;20091;-69
2021/08/16 14:25:41;;;;;;;8.75;5.32;;;;;;;;;;4973940;28;20248;-64
2021/08/16 14:28:08;;;;;;;13.98;5.20;;;;;;;;;;4946785;28;20039;-68
2021/08/16 14:30:36;;;;;;;12.80;5.30;;;;;;;;;;4972326;28;20059;-68
2021/08/16 14:36:20;;;;;;;11.63;5.53;;;;;;;;;;4928137;29;20035;-72
2021/08/16 14:38:51;;;;;;;12.20;6.25;;;;;;;;;;4928165;29;20058;-71